sensor_id;sensor_type;location;lat;lon;timestamp;P1;durP1;ratioP1;P2;durP2;ratioP2
2674;SDS011;1347;42.122;24.746;2023-07-31T00:01:18;6.90;;;2.43;;
2674;SDS011;1347;42.122;24.746;2023-07-31T00:03:45;5.07;;;3.20;;
2674;SDS011;1347;42.122;24.746;2023-07-31T00:06:14;5.53;;;3.53;;
2674;SDS011;1347;42.122;24.746;2023-07-31T00:08:41;3.97;;;2.60;;
2674;SDS011;1347;42.122;24.746;2023-07-31T00:11:08;7.67;;;3.07;;
2674;SDS011;1347;42.122;24.746;2023-07-31T00:13:35;3.33;;;2.53;;
2674;SDS011;1347;42.122;24.746;2023-07-31T00:16:01;7.30;;;2.63;;
2674;SDS011;1347;42.122;24.746;2023-07-31T00:18:28;6.63;;;3.27;;
2674;SDS011;1347;42.122;24.746;2023-07-31T00:20:55;3.03;;;2.30;;
2674;SDS011;1347;42.122;24.746;2023-07-31T00:23:23;3.23;;;2.77;;
2674;SDS011;1347;42.122;24.746;2023-07-31T00:25:50;3.10;;;2.50;;
2674;SDS011;1347;42.122;24.746;2023-07-31T00:28:17;3.50;;;2.97;;
2674;SDS011;1347;42.122;24.746;2023-07-31T00:30:44;9.93;;;3.60;;
2674;SDS011;1347;42.122;24.746;2023-07-31T00:33:11;3.23;;;2.97;;
2674;SDS011;1347;42.122;24.746;2023-07-31T00:35:38;6.87;;;2.90;;
2674;SDS011;1347;42.122;24.746;2023-07-31T00:38:05;6.23;;;3.30;;
2674;SDS011;1347;42.122;24.746;2023-07-31T00:40:35;3.40;;;3.10;;
2674;SDS011;1347;42.122;24.746;2023-07-31T00:43:03;6.70;;;2.87;;
2674;SDS011;1347;42.122;24.746;2023-07-31T00:45:30;5.30;;;2.60;;
2674;SDS011;1347;42.122;24.746;2023-07-31T00:47:57;9.43;;;2.80;;
2674;SDS011;1347;42.122;24.746;2023-07-31T00:50:25;4.50;;;2.80;;
2674;SDS011;1347;42.122;24.746;2023-07-31T00:52:52;8.07;;;3.37;;
2674;SDS011;1347;42.122;24.746;2023-07-31T00:55:19;4.27;;;3.10;;
2674;SDS011;1347;42.122;24.746;2023-07-31T00:57:48;5.53;;;3.77;;
2674;SDS011;1347;42.122;24.746;2023-07-31T01:00:16;4.40;;;2.73;;
2674;SDS011;1347;42.122;24.746;2023-07-31T01:02:43;6.10;;;3.33;;
2674;SDS011;1347;42.122;24.746;2023-07-31T01:05:10;5.70;;;3.50;;
2674;SDS011;1347;42.122;24.746;2023-07-31T01:07:40;5.73;;;3.97;;
2674;SDS011;1347;42.122;24.746;2023-07-31T01:10:15;5.17;;;3.50;;
2674;SDS011;1347;42.122;24.746;2023-07-31T01:12:45;8.37;;;2.90;;
2674;SDS011;1347;42.122;24.746;2023-07-31T01:15:14;3.77;;;3.43;;
2674;SDS011;1347;42.122;24.746;2023-07-31T01:17:42;6.07;;;4.30;;
2674;SDS011;1347;42.122;24.746;2023-07-31T01:20:10;5.23;;;4.30;;
2674;SDS011;1347;42.122;24.746;2023-07-31T01:22:42;6.93;;;4.50;;
2674;SDS011;1347;42.122;24.746;2023-07-31T01:25:30;4.47;;;4.07;;
2674;SDS011;1347;42.122;24.746;2023-07-31T01:28:19;6.00;;;5.27;;
2674;SDS011;1347;42.122;24.746;2023-07-31T01:30:50;5.77;;;4.47;;
2674;SDS011;1347;42.122;24.746;2023-07-31T01:33:17;5.77;;;4.70;;
2674;SDS011;1347;42.122;24.746;2023-07-31T01:35:45;8.13;;;4.67;;
2674;SDS011;1347;42.122;24.746;2023-07-31T01:38:15;6.30;;;4.60;;
2674;SDS011;1347;42.122;24.746;2023-07-31T01:40:42;5.10;;;4.60;;
2674;SDS011;1347;42.122;24.746;2023-07-31T01:43:09;5.47;;;4.67;;
2674;SDS011;1347;42.122;24.746;2023-07-31T01:45:37;7.40;;;5.00;;
2674;SDS011;1347;42.122;24.746;2023-07-31T01:48:04;6.17;;;4.90;;
2674;SDS011;1347;42.122;24.746;2023-07-31T01:50:31;6.87;;;5.50;;
2674;SDS011;1347;42.122;24.746;2023-07-31T01:52:57;5.27;;;4.73;;
2674;SDS011;1347;42.122;24.746;2023-07-31T01:55:24;6.23;;;5.00;;
2674;SDS011;1347;42.122;24.746;2023-07-31T01:57:51;6.30;;;5.70;;
2674;SDS011;1347;42.122;24.746;2023-07-31T02:00:18;7.93;;;6.70;;
2674;SDS011;1347;42.122;24.746;2023-07-31T02:02:46;9.93;;;8.83;;
2674;SDS011;1347;42.122;24.746;2023-07-31T02:05:12;9.63;;;7.30;;
2674;SDS011;1347;42.122;24.746;2023-07-31T02:07:39;8.83;;;8.00;;
2674;SDS011;1347;42.122;24.746;2023-07-31T02:10:06;9.00;;;8.10;;
2674;SDS011;1347;42.122;24.746;2023-07-31T02:12:34;9.00;;;8.03;;
2674;SDS011;1347;42.122;24.746;2023-07-31T02:15:00;8.50;;;7.53;;
2674;SDS011;1347;42.122;24.746;2023-07-31T02:17:27;7.20;;;6.50;;
2674;SDS011;1347;42.122;24.746;2023-07-31T02:19:56;5.73;;;5.13;;
2674;SDS011;1347;42.122;24.746;2023-07-31T02:22:23;7.97;;;5.30;;
2674;SDS011;1347;42.122;24.746;2023-07-31T02:24:50;5.70;;;4.90;;
2674;SDS011;1347;42.122;24.746;2023-07-31T02:27:16;7.70;;;4.47;;
2674;SDS011;1347;42.122;24.746;2023-07-31T02:29:43;5.17;;;3.97;;
2674;SDS011;1347;42.122;24.746;2023-07-31T02:32:10;4.73;;;4.33;;
2674;SDS011;1347;42.122;24.746;2023-07-31T02:34:37;4.17;;;3.77;;
2674;SDS011;1347;42.122;24.746;2023-07-31T02:37:05;4.60;;;4.20;;
2674;SDS011;1347;42.122;24.746;2023-07-31T02:39:32;5.23;;;4.30;;
2674;SDS011;1347;42.122;24.746;2023-07-31T02:41:59;6.20;;;5.30;;
2674;SDS011;1347;42.122;24.746;2023-07-31T02:44:26;5.93;;;4.90;;
2674;SDS011;1347;42.122;24.746;2023-07-31T02:46:53;5.27;;;4.80;;
2674;SDS011;1347;42.122;24.746;2023-07-31T02:49:20;6.23;;;5.27;;
2674;SDS011;1347;42.122;24.746;2023-07-31T02:51:47;6.60;;;5.47;;
2674;SDS011;1347;42.122;24.746;2023-07-31T02:54:15;6.67;;;5.20;;
2674;SDS011;1347;42.122;24.746;2023-07-31T02:56:42;6.87;;;6.27;;
2674;SDS011;1347;42.122;24.746;2023-07-31T02:59:09;7.53;;;5.80;;
2674;SDS011;1347;42.122;24.746;2023-07-31T03:01:36;6.03;;;5.53;;
2674;SDS011;1347;42.122;24.746;2023-07-31T03:04:03;5.63;;;5.13;;
2674;SDS011;1347;42.122;24.746;2023-07-31T03:06:30;6.33;;;5.83;;
2674;SDS011;1347;42.122;24.746;2023-07-31T03:08:57;9.10;;;6.10;;
2674;SDS011;1347;42.122;24.746;2023-07-31T03:11:25;6.40;;;5.80;;
2674;SDS011;1347;42.122;24.746;2023-07-31T03:13:52;7.83;;;7.10;;
2674;SDS011;1347;42.122;24.746;2023-07-31T03:16:19;6.50;;;5.50;;
2674;SDS011;1347;42.122;24.746;2023-07-31T03:18:46;7.43;;;6.80;;
2674;SDS011;1347;42.122;24.746;2023-07-31T03:21:14;7.33;;;6.63;;
2674;SDS011;1347;42.122;24.746;2023-07-31T03:23:40;7.50;;;6.90;;
2674;SDS011;1347;42.122;24.746;2023-07-31T03:26:08;7.50;;;6.50;;
2674;SDS011;1347;42.122;24.746;2023-07-31T03:28:37;9.20;;;7.40;;
2674;SDS011;1347;42.122;24.746;2023-07-31T03:31:04;9.00;;;8.10;;
2674;SDS011;1347;42.122;24.746;2023-07-31T03:33:30;9.70;;;8.77;;
2674;SDS011;1347;42.122;24.746;2023-07-31T03:35:57;8.50;;;7.73;;
2674;SDS011;1347;42.122;24.746;2023-07-31T03:38:24;9.87;;;8.97;;
2674;SDS011;1347;42.122;24.746;2023-07-31T03:40:51;10.57;;;9.40;;
2674;SDS011;1347;42.122;24.746;2023-07-31T03:43:18;10.90;;;9.93;;
2674;SDS011;1347;42.122;24.746;2023-07-31T03:45:46;11.33;;;9.73;;
2674;SDS011;1347;42.122;24.746;2023-07-31T03:48:13;14.47;;;9.77;;
2674;SDS011;1347;42.122;24.746;2023-07-31T03:50:40;24.10;;;11.57;;
2674;SDS011;1347;42.122;24.746;2023-07-31T03:53:07;11.03;;;9.87;;
2674;SDS011;1347;42.122;24.746;2023-07-31T03:55:34;11.63;;;9.40;;
2674;SDS011;1347;42.122;24.746;2023-07-31T03:58:01;13.10;;;9.20;;
2674;SDS011;1347;42.122;24.746;2023-07-31T04:00:28;13.33;;;9.67;;
2674;SDS011;1347;42.122;24.746;2023-07-31T04:02:56;12.57;;;10.87;;
2674;SDS011;1347;42.122;24.746;2023-07-31T04:05:23;8.97;;;8.10;;
2674;SDS011;1347;42.122;24.746;2023-07-31T04:07:50;8.17;;;7.37;;
2674;SDS011;1347;42.122;24.746;2023-07-31T04:10:17;9.80;;;8.00;;
2674;SDS011;1347;42.122;24.746;2023-07-31T04:12:44;9.20;;;8.30;;
2674;SDS011;1347;42.122;24.746;2023-07-31T04:15:10;7.70;;;7.00;;
2674;SDS011;1347;42.122;24.746;2023-07-31T04:17:37;7.93;;;7.33;;
2674;SDS011;1347;42.122;24.746;2023-07-31T04:20:06;10.10;;;8.70;;
2674;SDS011;1347;42.122;24.746;2023-07-31T04:22:34;8.70;;;8.00;;
2674;SDS011;1347;42.122;24.746;2023-07-31T04:25:00;9.90;;;9.10;;
2674;SDS011;1347;42.122;24.746;2023-07-31T04:27:27;10.90;;;9.20;;
2674;SDS011;1347;42.122;24.746;2023-07-31T04:29:54;10.03;;;9.07;;
2674;SDS011;1347;42.122;24.746;2023-07-31T04:32:21;10.23;;;8.93;;
2674;SDS011;1347;42.122;24.746;2023-07-31T04:34:48;10.07;;;9.17;;
2674;SDS011;1347;42.122;24.746;2023-07-31T04:37:16;9.80;;;8.90;;
2674;SDS011;1347;42.122;24.746;2023-07-31T04:39:43;10.10;;;9.17;;
2674;SDS011;1347;42.122;24.746;2023-07-31T04:42:10;9.30;;;8.47;;
2674;SDS011;1347;42.122;24.746;2023-07-31T04:44:37;8.23;;;7.43;;
2674;SDS011;1347;42.122;24.746;2023-07-31T04:47:04;9.27;;;8.47;;
2674;SDS011;1347;42.122;24.746;2023-07-31T04:49:31;9.93;;;8.33;;
2674;SDS011;1347;42.122;24.746;2023-07-31T04:51:58;8.30;;;7.50;;
2674;SDS011;1347;42.122;24.746;2023-07-31T04:54:26;8.33;;;7.50;;
2674;SDS011;1347;42.122;24.746;2023-07-31T04:56:53;9.03;;;8.23;;
2674;SDS011;1347;42.122;24.746;2023-07-31T04:59:20;9.40;;;8.50;;
2674;SDS011;1347;42.122;24.746;2023-07-31T05:01:47;9.20;;;8.30;;
2674;SDS011;1347;42.122;24.746;2023-07-31T05:04:14;9.47;;;8.67;;
2674;SDS011;1347;42.122;24.746;2023-07-31T05:06:41;10.97;;;10.07;;
2674;SDS011;1347;42.122;24.746;2023-07-31T05:09:08;8.00;;;7.20;;
2674;SDS011;1347;42.122;24.746;2023-07-31T05:11:37;11.00;;;7.60;;
2674;SDS011;1347;42.122;24.746;2023-07-31T05:14:05;8.57;;;7.77;;
2674;SDS011;1347;42.122;24.746;2023-07-31T05:16:32;8.50;;;7.70;;
2674;SDS011;1347;42.122;24.746;2023-07-31T05:18:59;9.07;;;8.17;;
2674;SDS011;1347;42.122;24.746;2023-07-31T05:21:26;9.37;;;7.40;;
2674;SDS011;1347;42.122;24.746;2023-07-31T05:23:53;8.53;;;7.83;;
2674;SDS011;1347;42.122;24.746;2023-07-31T05:26:20;8.93;;;8.03;;
2674;SDS011;1347;42.122;24.746;2023-07-31T05:28:48;8.23;;;7.40;;
2674;SDS011;1347;42.122;24.746;2023-07-31T05:31:15;8.90;;;8.00;;
2674;SDS011;1347;42.122;24.746;2023-07-31T05:33:42;9.07;;;8.17;;
2674;SDS011;1347;42.122;24.746;2023-07-31T05:36:09;8.93;;;8.23;;
2674;SDS011;1347;42.122;24.746;2023-07-31T05:38:36;11.10;;;10.10;;
2674;SDS011;1347;42.122;24.746;2023-07-31T05:41:03;11.57;;;10.60;;
2674;SDS011;1347;42.122;24.746;2023-07-31T05:43:30;12.30;;;11.40;;
2674;SDS011;1347;42.122;24.746;2023-07-31T05:45:58;9.73;;;8.93;;
2674;SDS011;1347;42.122;24.746;2023-07-31T05:48:25;10.17;;;9.27;;
2674;SDS011;1347;42.122;24.746;2023-07-31T05:50:52;8.97;;;8.17;;
2674;SDS011;1347;42.122;24.746;2023-07-31T05:53:19;9.33;;;8.53;;
2674;SDS011;1347;42.122;24.746;2023-07-31T05:55:46;9.57;;;8.67;;
2674;SDS011;1347;42.122;24.746;2023-07-31T05:58:12;9.10;;;8.30;;
2674;SDS011;1347;42.122;24.746;2023-07-31T06:00:40;10.43;;;7.43;;
2674;SDS011;1347;42.122;24.746;2023-07-31T06:03:12;9.17;;;8.23;;
2674;SDS011;1347;42.122;24.746;2023-07-31T06:05:39;10.17;;;9.20;;
2674;SDS011;1347;42.122;24.746;2023-07-31T06:08:06;10.60;;;9.27;;
2674;SDS011;1347;42.122;24.746;2023-07-31T06:10:33;10.67;;;9.63;;
2674;SDS011;1347;42.122;24.746;2023-07-31T06:13:00;10.50;;;9.70;;
2674;SDS011;1347;42.122;24.746;2023-07-31T06:15:26;13.83;;;10.00;;
2674;SDS011;1347;42.122;24.746;2023-07-31T06:17:53;12.03;;;10.83;;
2674;SDS011;1347;42.122;24.746;2023-07-31T06:20:22;11.03;;;10.13;;
2674;SDS011;1347;42.122;24.746;2023-07-31T06:22:49;12.00;;;10.80;;
2674;SDS011;1347;42.122;24.746;2023-07-31T06:25:16;11.87;;;10.53;;
2674;SDS011;1347;42.122;24.746;2023-07-31T06:27:42;12.10;;;11.10;;
2674;SDS011;1347;42.122;24.746;2023-07-31T06:30:10;12.47;;;11.30;;
2674;SDS011;1347;42.122;24.746;2023-07-31T06:32:37;11.53;;;10.60;;
2674;SDS011;1347;42.122;24.746;2023-07-31T06:35:05;14.43;;;13.13;;
2674;SDS011;1347;42.122;24.746;2023-07-31T06:37:34;13.63;;;12.33;;
2674;SDS011;1347;42.122;24.746;2023-07-31T06:40:01;11.90;;;10.90;;
2674;SDS011;1347;42.122;24.746;2023-07-31T06:42:30;12.50;;;11.30;;
2674;SDS011;1347;42.122;24.746;2023-07-31T06:44:57;11.60;;;10.60;;
2674;SDS011;1347;42.122;24.746;2023-07-31T06:47:24;13.20;;;11.90;;
2674;SDS011;1347;42.122;24.746;2023-07-31T06:49:51;12.50;;;11.47;;
2674;SDS011;1347;42.122;24.746;2023-07-31T06:52:18;12.60;;;11.40;;
2674;SDS011;1347;42.122;24.746;2023-07-31T06:54:57;14.00;;;12.70;;
2674;SDS011;1347;42.122;24.746;2023-07-31T06:57:27;12.93;;;11.80;;
2674;SDS011;1347;42.122;24.746;2023-07-31T06:59:54;14.83;;;13.53;;
2674;SDS011;1347;42.122;24.746;2023-07-31T07:02:21;12.40;;;11.27;;
2674;SDS011;1347;42.122;24.746;2023-07-31T07:04:49;12.93;;;11.83;;
2674;SDS011;1347;42.122;24.746;2023-07-31T07:07:17;12.40;;;11.30;;
2674;SDS011;1347;42.122;24.746;2023-07-31T07:09:44;13.00;;;11.60;;
2674;SDS011;1347;42.122;24.746;2023-07-31T07:12:12;12.50;;;11.50;;
2674;SDS011;1347;42.122;24.746;2023-07-31T07:14:39;15.20;;;13.83;;
2674;SDS011;1347;42.122;24.746;2023-07-31T07:17:06;15.03;;;13.70;;
2674;SDS011;1347;42.122;24.746;2023-07-31T07:19:33;13.87;;;12.50;;
2674;SDS011;1347;42.122;24.746;2023-07-31T07:22:00;15.63;;;14.10;;
2674;SDS011;1347;42.122;24.746;2023-07-31T07:24:27;13.53;;;12.33;;
2674;SDS011;1347;42.122;24.746;2023-07-31T07:26:54;15.70;;;14.40;;
2674;SDS011;1347;42.122;24.746;2023-07-31T07:29:22;17.30;;;15.90;;
2674;SDS011;1347;42.122;24.746;2023-07-31T07:31:49;15.83;;;14.43;;
2674;SDS011;1347;42.122;24.746;2023-07-31T07:34:16;15.23;;;13.87;;
2674;SDS011;1347;42.122;24.746;2023-07-31T07:36:43;16.50;;;14.10;;
2674;SDS011;1347;42.122;24.746;2023-07-31T07:39:10;16.10;;;14.73;;
2674;SDS011;1347;42.122;24.746;2023-07-31T07:41:37;15.40;;;14.00;;
2674;SDS011;1347;42.122;24.746;2023-07-31T07:44:04;15.73;;;14.27;;
2674;SDS011;1347;42.122;24.746;2023-07-31T07:46:32;16.73;;;15.30;;
2674;SDS011;1347;42.122;24.746;2023-07-31T07:48:59;18.97;;;17.27;;
2674;SDS011;1347;42.122;24.746;2023-07-31T07:51:26;19.40;;;17.80;;
2674;SDS011;1347;42.122;24.746;2023-07-31T07:53:55;19.20;;;17.60;;
2674;SDS011;1347;42.122;24.746;2023-07-31T07:56:22;19.33;;;17.73;;
2674;SDS011;1347;42.122;24.746;2023-07-31T07:58:50;19.13;;;17.43;;
2674;SDS011;1347;42.122;24.746;2023-07-31T08:01:17;18.93;;;17.10;;
2674;SDS011;1347;42.122;24.746;2023-07-31T08:03:45;18.93;;;17.30;;
2674;SDS011;1347;42.122;24.746;2023-07-31T08:06:13;17.90;;;16.30;;
2674;SDS011;1347;42.122;24.746;2023-07-31T08:08:40;18.70;;;16.90;;
2674;SDS011;1347;42.122;24.746;2023-07-31T08:11:07;15.50;;;14.13;;
2674;SDS011;1347;42.122;24.746;2023-07-31T08:13:34;18.10;;;16.60;;
2674;SDS011;1347;42.122;24.746;2023-07-31T08:16:02;17.47;;;16.07;;
2674;SDS011;1347;42.122;24.746;2023-07-31T08:18:30;16.93;;;15.53;;
2674;SDS011;1347;42.122;24.746;2023-07-31T08:20:58;18.70;;;17.17;;
2674;SDS011;1347;42.122;24.746;2023-07-31T08:23:25;19.00;;;17.30;;
2674;SDS011;1347;42.122;24.746;2023-07-31T08:25:52;19.50;;;17.90;;
2674;SDS011;1347;42.122;24.746;2023-07-31T08:28:19;20.00;;;18.33;;
2674;SDS011;1347;42.122;24.746;2023-07-31T08:30:46;19.00;;;17.33;;
2674;SDS011;1347;42.122;24.746;2023-07-31T08:33:13;19.13;;;17.53;;
2674;SDS011;1347;42.122;24.746;2023-07-31T08:35:40;20.13;;;18.43;;
2674;SDS011;1347;42.122;24.746;2023-07-31T08:38:08;19.07;;;17.37;;
2674;SDS011;1347;42.122;24.746;2023-07-31T08:40:36;18.30;;;16.80;;
2674;SDS011;1347;42.122;24.746;2023-07-31T08:43:03;18.77;;;16.97;;
2674;SDS011;1347;42.122;24.746;2023-07-31T08:45:30;16.87;;;15.47;;
2674;SDS011;1347;42.122;24.746;2023-07-31T08:47:58;16.20;;;14.77;;
2674;SDS011;1347;42.122;24.746;2023-07-31T08:50:25;15.87;;;14.40;;
2674;SDS011;1347;42.122;24.746;2023-07-31T08:52:53;15.93;;;14.60;;
2674;SDS011;1347;42.122;24.746;2023-07-31T08:55:21;16.70;;;14.97;;
2674;SDS011;1347;42.122;24.746;2023-07-31T08:57:50;14.33;;;13.23;;
2674;SDS011;1347;42.122;24.746;2023-07-31T09:00:18;16.37;;;15.17;;
2674;SDS011;1347;42.122;24.746;2023-07-31T09:02:52;16.07;;;14.77;;
2674;SDS011;1347;42.122;24.746;2023-07-31T09:05:24;15.07;;;13.67;;
2674;SDS011;1347;42.122;24.746;2023-07-31T09:07:53;15.10;;;13.90;;
2674;SDS011;1347;42.122;24.746;2023-07-31T09:10:23;16.53;;;15.23;;
2674;SDS011;1347;42.122;24.746;2023-07-31T09:12:51;15.97;;;14.67;;
2674;SDS011;1347;42.122;24.746;2023-07-31T09:15:19;15.10;;;13.50;;
2674;SDS011;1347;42.122;24.746;2023-07-31T09:17:46;14.60;;;13.40;;
2674;SDS011;1347;42.122;24.746;2023-07-31T09:20:14;15.10;;;13.93;;
2674;SDS011;1347;42.122;24.746;2023-07-31T09:22:42;15.63;;;14.13;;
2674;SDS011;1347;42.122;24.746;2023-07-31T09:25:15;16.67;;;15.00;;
2674;SDS011;1347;42.122;24.746;2023-07-31T09:27:48;18.00;;;16.50;;
2674;SDS011;1347;42.122;24.746;2023-07-31T09:30:15;16.97;;;15.57;;
2674;SDS011;1347;42.122;24.746;2023-07-31T09:32:43;19.57;;;17.97;;
2674;SDS011;1347;42.122;24.746;2023-07-31T09:35:18;15.80;;;14.50;;
2674;SDS011;1347;42.122;24.746;2023-07-31T09:37:50;15.23;;;14.10;;
2674;SDS011;1347;42.122;24.746;2023-07-31T09:40:30;16.37;;;15.07;;
2674;SDS011;1347;42.122;24.746;2023-07-31T09:43:02;14.40;;;13.27;;
2674;SDS011;1347;42.122;24.746;2023-07-31T09:45:34;16.77;;;15.47;;
2674;SDS011;1347;42.122;24.746;2023-07-31T09:48:02;15.73;;;14.50;;
2674;SDS011;1347;42.122;24.746;2023-07-31T09:50:34;16.60;;;15.07;;
2674;SDS011;1347;42.122;24.746;2023-07-31T09:53:03;15.80;;;14.50;;
2674;SDS011;1347;42.122;24.746;2023-07-31T09:55:30;15.83;;;14.20;;
2674;SDS011;1347;42.122;24.746;2023-07-31T09:57:57;16.70;;;15.37;;
2674;SDS011;1347;42.122;24.746;2023-07-31T10:00:29;16.83;;;15.30;;
2674;SDS011;1347;42.122;24.746;2023-07-31T10:02:57;13.77;;;12.77;;
2674;SDS011;1347;42.122;24.746;2023-07-31T10:05:26;12.77;;;11.87;;
2674;SDS011;1347;42.122;24.746;2023-07-31T10:07:57;14.50;;;13.23;;
2674;SDS011;1347;42.122;24.746;2023-07-31T10:10:25;13.43;;;12.40;;
2674;SDS011;1347;42.122;24.746;2023-07-31T10:12:54;13.80;;;12.70;;
2674;SDS011;1347;42.122;24.746;2023-07-31T10:15:24;12.37;;;11.37;;
2674;SDS011;1347;42.122;24.746;2023-07-31T10:17:52;11.93;;;11.03;;
2674;SDS011;1347;42.122;24.746;2023-07-31T10:20:21;25.07;;;13.20;;
2674;SDS011;1347;42.122;24.746;2023-07-31T10:22:48;12.70;;;11.70;;
2674;SDS011;1347;42.122;24.746;2023-07-31T10:25:16;11.90;;;10.90;;
2674;SDS011;1347;42.122;24.746;2023-07-31T10:27:46;13.77;;;12.77;;
2674;SDS011;1347;42.122;24.746;2023-07-31T10:30:14;12.97;;;12.07;;
2674;SDS011;1347;42.122;24.746;2023-07-31T10:32:45;12.77;;;11.57;;
2674;SDS011;1347;42.122;24.746;2023-07-31T10:35:13;11.63;;;10.73;;
2674;SDS011;1347;42.122;24.746;2023-07-31T10:37:42;11.90;;;10.93;;
2674;SDS011;1347;42.122;24.746;2023-07-31T10:40:10;13.00;;;12.10;;
2674;SDS011;1347;42.122;24.746;2023-07-31T10:42:45;12.13;;;11.20;;
2674;SDS011;1347;42.122;24.746;2023-07-31T10:45:14;12.23;;;11.33;;
2674;SDS011;1347;42.122;24.746;2023-07-31T10:47:58;11.57;;;10.57;;
2674;SDS011;1347;42.122;24.746;2023-07-31T10:50:26;12.63;;;11.63;;
2674;SDS011;1347;42.122;24.746;2023-07-31T10:52:54;13.37;;;12.27;;
2674;SDS011;1347;42.122;24.746;2023-07-31T10:55:24;13.13;;;12.13;;
2674;SDS011;1347;42.122;24.746;2023-07-31T10:57:53;12.70;;;11.80;;
2674;SDS011;1347;42.122;24.746;2023-07-31T11:00:21;12.10;;;11.10;;
2674;SDS011;1347;42.122;24.746;2023-07-31T11:02:59;11.87;;;11.07;;
2674;SDS011;1347;42.122;24.746;2023-07-31T11:08:14;11.93;;;10.87;;
2674;SDS011;1347;42.122;24.746;2023-07-31T11:10:42;10.37;;;9.63;;
2674;SDS011;1347;42.122;24.746;2023-07-31T11:13:10;11.20;;;10.40;;
2674;SDS011;1347;42.122;24.746;2023-07-31T11:15:37;10.37;;;9.57;;
2674;SDS011;1347;42.122;24.746;2023-07-31T11:18:06;9.60;;;8.90;;
2674;SDS011;1347;42.122;24.746;2023-07-31T11:20:35;10.10;;;9.40;;
2674;SDS011;1347;42.122;24.746;2023-07-31T11:23:03;8.83;;;8.13;;
2674;SDS011;1347;42.122;24.746;2023-07-31T11:25:33;12.10;;;10.80;;
2674;SDS011;1347;42.122;24.746;2023-07-31T11:28:04;10.10;;;9.40;;
2674;SDS011;1347;42.122;24.746;2023-07-31T11:30:32;10.60;;;9.80;;
2674;SDS011;1347;42.122;24.746;2023-07-31T11:33:00;11.40;;;10.67;;
2674;SDS011;1347;42.122;24.746;2023-07-31T11:35:31;12.07;;;11.00;;
2674;SDS011;1347;42.122;24.746;2023-07-31T11:37:58;11.47;;;10.57;;
2674;SDS011;1347;42.122;24.746;2023-07-31T11:40:26;10.97;;;9.70;;
2674;SDS011;1347;42.122;24.746;2023-07-31T11:42:55;10.20;;;9.33;;
2674;SDS011;1347;42.122;24.746;2023-07-31T11:45:24;9.63;;;8.93;;
2674;SDS011;1347;42.122;24.746;2023-07-31T11:47:53;11.10;;;10.30;;
2674;SDS011;1347;42.122;24.746;2023-07-31T11:50:21;11.33;;;10.43;;
2674;SDS011;1347;42.122;24.746;2023-07-31T11:52:51;10.80;;;10.00;;
2674;SDS011;1347;42.122;24.746;2023-07-31T11:55:21;12.00;;;11.07;;
2674;SDS011;1347;42.122;24.746;2023-07-31T11:57:49;11.03;;;10.07;;
2674;SDS011;1347;42.122;24.746;2023-07-31T12:00:17;10.20;;;9.40;;
2674;SDS011;1347;42.122;24.746;2023-07-31T12:02:45;9.93;;;9.23;;
2674;SDS011;1347;42.122;24.746;2023-07-31T12:05:13;8.70;;;8.10;;
2674;SDS011;1347;42.122;24.746;2023-07-31T12:07:43;11.30;;;10.40;;
2674;SDS011;1347;42.122;24.746;2023-07-31T12:10:13;12.07;;;11.17;;
2674;SDS011;1347;42.122;24.746;2023-07-31T12:12:55;11.10;;;10.30;;
2674;SDS011;1347;42.122;24.746;2023-07-31T12:15:28;11.50;;;10.60;;
2674;SDS011;1347;42.122;24.746;2023-07-31T12:18:06;12.47;;;11.47;;
2674;SDS011;1347;42.122;24.746;2023-07-31T12:20:34;12.67;;;11.73;;
2674;SDS011;1347;42.122;24.746;2023-07-31T12:23:01;12.57;;;11.67;;
2674;SDS011;1347;42.122;24.746;2023-07-31T12:25:31;12.90;;;11.57;;
2674;SDS011;1347;42.122;24.746;2023-07-31T12:28:03;13.70;;;12.50;;
2674;SDS011;1347;42.122;24.746;2023-07-31T12:30:32;13.33;;;11.93;;
2674;SDS011;1347;42.122;24.746;2023-07-31T12:33:03;13.13;;;11.87;;
2674;SDS011;1347;42.122;24.746;2023-07-31T12:35:34;12.33;;;11.13;;
2674;SDS011;1347;42.122;24.746;2023-07-31T12:38:03;12.00;;;11.20;;
2674;SDS011;1347;42.122;24.746;2023-07-31T12:40:32;10.93;;;10.13;;
2674;SDS011;1347;42.122;24.746;2023-07-31T12:43:00;10.70;;;10.00;;
2674;SDS011;1347;42.122;24.746;2023-07-31T12:45:29;10.53;;;9.60;;
2674;SDS011;1347;42.122;24.746;2023-07-31T12:47:56;8.67;;;8.07;;
2674;SDS011;1347;42.122;24.746;2023-07-31T12:50:23;7.07;;;6.57;;
2674;SDS011;1347;42.122;24.746;2023-07-31T12:52:50;6.50;;;6.10;;
2674;SDS011;1347;42.122;24.746;2023-07-31T12:55:17;6.50;;;6.00;;
2674;SDS011;1347;42.122;24.746;2023-07-31T12:57:46;6.20;;;5.60;;
2674;SDS011;1347;42.122;24.746;2023-07-31T13:00:13;5.97;;;5.53;;
2674;SDS011;1347;42.122;24.746;2023-07-31T13:02:40;8.70;;;8.10;;
2674;SDS011;1347;42.122;24.746;2023-07-31T13:05:07;10.40;;;9.70;;
2674;SDS011;1347;42.122;24.746;2023-07-31T13:07:34;11.10;;;10.30;;
2674;SDS011;1347;42.122;24.746;2023-07-31T13:10:01;11.50;;;10.70;;
2674;SDS011;1347;42.122;24.746;2023-07-31T13:12:28;10.63;;;9.70;;
2674;SDS011;1347;42.122;24.746;2023-07-31T13:14:56;9.93;;;9.27;;
2674;SDS011;1347;42.122;24.746;2023-07-31T13:17:23;12.40;;;11.47;;
2674;SDS011;1347;42.122;24.746;2023-07-31T13:19:51;11.67;;;10.73;;
2674;SDS011;1347;42.122;24.746;2023-07-31T13:22:18;12.50;;;11.40;;
2674;SDS011;1347;42.122;24.746;2023-07-31T13:24:44;10.73;;;9.73;;
2674;SDS011;1347;42.122;24.746;2023-07-31T13:27:11;11.90;;;11.00;;
2674;SDS011;1347;42.122;24.746;2023-07-31T13:29:38;11.23;;;10.20;;
2674;SDS011;1347;42.122;24.746;2023-07-31T13:32:07;12.73;;;10.47;;
2674;SDS011;1347;42.122;24.746;2023-07-31T13:34:33;11.40;;;10.40;;
2674;SDS011;1347;42.122;24.746;2023-07-31T13:37:00;13.17;;;12.13;;
2674;SDS011;1347;42.122;24.746;2023-07-31T13:39:27;10.60;;;9.70;;
2674;SDS011;1347;42.122;24.746;2023-07-31T13:41:54;10.50;;;9.67;;
2674;SDS011;1347;42.122;24.746;2023-07-31T13:44:21;10.40;;;9.60;;
2674;SDS011;1347;42.122;24.746;2023-07-31T13:46:48;10.00;;;9.20;;
2674;SDS011;1347;42.122;24.746;2023-07-31T13:49:16;10.47;;;9.43;;
2674;SDS011;1347;42.122;24.746;2023-07-31T13:51:43;11.93;;;10.93;;
2674;SDS011;1347;42.122;24.746;2023-07-31T13:54:11;10.30;;;9.53;;
2674;SDS011;1347;42.122;24.746;2023-07-31T13:56:40;11.37;;;10.43;;
2674;SDS011;1347;42.122;24.746;2023-07-31T13:59:07;10.77;;;9.97;;
2674;SDS011;1347;42.122;24.746;2023-07-31T14:01:34;12.00;;;10.87;;
2674;SDS011;1347;42.122;24.746;2023-07-31T14:04:01;10.27;;;9.47;;
2674;SDS011;1347;42.122;24.746;2023-07-31T14:06:30;10.43;;;9.60;;
2674;SDS011;1347;42.122;24.746;2023-07-31T14:08:56;9.90;;;9.10;;
2674;SDS011;1347;42.122;24.746;2023-07-31T14:11:23;10.60;;;9.53;;
2674;SDS011;1347;42.122;24.746;2023-07-31T14:13:50;12.53;;;11.27;;
2674;SDS011;1347;42.122;24.746;2023-07-31T14:16:17;10.87;;;10.07;;
2674;SDS011;1347;42.122;24.746;2023-07-31T14:18:44;11.70;;;9.87;;
2674;SDS011;1347;42.122;24.746;2023-07-31T14:21:12;9.60;;;8.90;;
2674;SDS011;1347;42.122;24.746;2023-07-31T14:23:40;10.10;;;9.40;;
2674;SDS011;1347;42.122;24.746;2023-07-31T14:26:07;9.80;;;8.80;;
2674;SDS011;1347;42.122;24.746;2023-07-31T14:28:34;10.37;;;9.37;;
2674;SDS011;1347;42.122;24.746;2023-07-31T14:31:01;10.67;;;9.87;;
2674;SDS011;1347;42.122;24.746;2023-07-31T14:33:28;9.43;;;8.50;;
2674;SDS011;1347;42.122;24.746;2023-07-31T14:35:55;10.77;;;9.93;;
2674;SDS011;1347;42.122;24.746;2023-07-31T14:38:22;11.33;;;10.33;;
2674;SDS011;1347;42.122;24.746;2023-07-31T14:40:51;10.70;;;9.80;;
2674;SDS011;1347;42.122;24.746;2023-07-31T14:43:18;11.33;;;10.53;;
2674;SDS011;1347;42.122;24.746;2023-07-31T14:45:45;11.60;;;10.60;;
2674;SDS011;1347;42.122;24.746;2023-07-31T14:48:12;10.40;;;9.60;;
2674;SDS011;1347;42.122;24.746;2023-07-31T14:50:39;13.60;;;10.97;;
2674;SDS011;1347;42.122;24.746;2023-07-31T14:53:06;10.40;;;9.50;;